sensor_id;sensor_type;location;lat;lon;timestamp;temperature;humidity
14908;DHT22;7545;52.092;7.006;2023-03-03T00:02:07;3.00;99.90
14908;DHT22;7545;52.092;7.006;2023-03-03T00:04:33;3.00;99.90
14908;DHT22;7545;52.092;7.006;2023-03-03T00:06:58;3.00;99.90
14908;DHT22;7545;52.092;7.006;2023-03-03T00:09:24;3.10;99.90
14908;DHT22;7545;52.092;7.006;2023-03-03T00:11:55;3.10;99.90
14908;DHT22;7545;52.092;7.006;2023-03-03T00:14:31;3.10;99.90
14908;DHT22;7545;52.092;7.006;2023-03-03T00:17:00;3.10;99.90
14908;DHT22;7545;52.092;7.006;2023-03-03T00:19:25;3.10;99.90
14908;DHT22;7545;52.092;7.006;2023-03-03T00:21:52;3.00;99.90
14908;DHT22;7545;52.092;7.006;2023-03-03T00:24:24;3.10;99.90
14908;DHT22;7545;52.092;7.006;2023-03-03T00:26:54;3.00;99.90
14908;DHT22;7545;52.092;7.006;2023-03-03T00:34:41;3.10;99.90
14908;DHT22;7545;52.092;7.006;2023-03-03T00:37:32;3.10;99.90
14908;DHT22;7545;52.092;7.006;2023-03-03T00:42:44;3.00;99.90
14908;DHT22;7545;52.092;7.006;2023-03-03T00:50:49;3.00;99.90
14908;DHT22;7545;52.092;7.006;2023-03-03T00:53:20;3.00;99.90
14908;DHT22;7545;52.092;7.006;2023-03-03T00:55:47;3.00;99.90
14908;DHT22;7545;52.092;7.006;2023-03-03T00:58:14;3.00;99.90
14908;DHT22;7545;52.092;7.006;2023-03-03T01:00:41;3.00;99.90
14908;DHT22;7545;52.092;7.006;2023-03-03T01:03:09;2.90;99.90
14908;DHT22;7545;52.092;7.006;2023-03-03T01:05:36;2.90;99.90
14908;DHT22;7545;52.092;7.006;2023-03-03T01:08:02;2.90;99.90
14908;DHT22;7545;52.092;7.006;2023-03-03T01:10:30;2.90;99.90
14908;DHT22;7545;52.092;7.006;2023-03-03T01:12:56;3.00;99.90
14908;DHT22;7545;52.092;7.006;2023-03-03T01:15:23;3.00;99.90
14908;DHT22;7545;52.092;7.006;2023-03-03T01:17:49;3.00;99.90
14908;DHT22;7545;52.092;7.006;2023-03-03T01:20:16;3.00;99.90
14908;DHT22;7545;52.092;7.006;2023-03-03T01:22:42;3.00;99.90
14908;DHT22;7545;52.092;7.006;2023-03-03T01:25:08;3.00;99.90
14908;DHT22;7545;52.092;7.006;2023-03-03T01:27:34;3.00;99.90
14908;DHT22;7545;52.092;7.006;2023-03-03T01:30:00;3.00;99.90
14908;DHT22;7545;52.092;7.006;2023-03-03T01:32:27;2.90;99.90
14908;DHT22;7545;52.092;7.006;2023-03-03T01:34:53;3.00;99.90
14908;DHT22;7545;52.092;7.006;2023-03-03T01:37:20;3.00;99.90
14908;DHT22;7545;52.092;7.006;2023-03-03T01:39:50;3.00;99.90
14908;DHT22;7545;52.092;7.006;2023-03-03T01:42:15;3.00;99.90
14908;DHT22;7545;52.092;7.006;2023-03-03T01:44:41;3.00;99.90
14908;DHT22;7545;52.092;7.006;2023-03-03T01:47:13;3.10;99.90
14908;DHT22;7545;52.092;7.006;2023-03-03T01:49:59;3.10;99.90
14908;DHT22;7545;52.092;7.006;2023-03-03T01:52:33;3.10;99.90
14908;DHT22;7545;52.092;7.006;2023-03-03T01:55:24;3.10;99.90
14908;DHT22;7545;52.092;7.006;2023-03-03T01:58:22;3.10;99.90
14908;DHT22;7545;52.092;7.006;2023-03-03T02:00:52;3.10;99.90
14908;DHT22;7545;52.092;7.006;2023-03-03T02:03:20;3.10;99.90
14908;DHT22;7545;52.092;7.006;2023-03-03T02:05:47;3.10;99.90
14908;DHT22;7545;52.092;7.006;2023-03-03T02:08:18;3.10;99.90
14908;DHT22;7545;52.092;7.006;2023-03-03T02:10:45;3.10;99.90
14908;DHT22;7545;52.092;7.006;2023-03-03T02:13:12;3.20;99.90
14908;DHT22;7545;52.092;7.006;2023-03-03T02:15:38;3.20;99.90
14908;DHT22;7545;52.092;7.006;2023-03-03T02:18:12;3.10;99.90
14908;DHT22;7545;52.092;7.006;2023-03-03T02:23:47;3.10;99.90
14908;DHT22;7545;52.092;7.006;2023-03-03T02:26:25;3.10;99.90
14908;DHT22;7545;52.092;7.006;2023-03-03T02:28:51;3.10;99.90
14908;DHT22;7545;52.092;7.006;2023-03-03T02:31:20;3.10;99.90
14908;DHT22;7545;52.092;7.006;2023-03-03T02:33:48;3.10;99.90
14908;DHT22;7545;52.092;7.006;2023-03-03T02:36:17;3.10;99.90
14908;DHT22;7545;52.092;7.006;2023-03-03T02:38:49;3.10;99.90
14908;DHT22;7545;52.092;7.006;2023-03-03T02:41:34;3.10;99.90
14908;DHT22;7545;52.092;7.006;2023-03-03T02:44:04;3.10;99.90
14908;DHT22;7545;52.092;7.006;2023-03-03T02:46:38;3.10;99.90
14908;DHT22;7545;52.092;7.006;2023-03-03T02:49:05;3.10;99.90
14908;DHT22;7545;52.092;7.006;2023-03-03T02:51:31;3.10;99.90
14908;DHT22;7545;52.092;7.006;2023-03-03T02:53:57;3.10;99.90
14908;DHT22;7545;52.092;7.006;2023-03-03T02:56:23;3.00;99.90
14908;DHT22;7545;52.092;7.006;2023-03-03T02:58:49;3.00;99.90
14908;DHT22;7545;52.092;7.006;2023-03-03T03:01:15;3.00;99.90
14908;DHT22;7545;52.092;7.006;2023-03-03T03:03:40;3.00;99.90
14908;DHT22;7545;52.092;7.006;2023-03-03T03:06:06;3.00;99.90
14908;DHT22;7545;52.092;7.006;2023-03-03T03:08:32;3.10;99.90
14908;DHT22;7545;52.092;7.006;2023-03-03T03:10:57;3.10;99.90
14908;DHT22;7545;52.092;7.006;2023-03-03T03:13:23;3.00;99.90
14908;DHT22;7545;52.092;7.006;2023-03-03T03:15:49;3.00;99.90
14908;DHT22;7545;52.092;7.006;2023-03-03T03:18:15;3.00;99.90
14908;DHT22;7545;52.092;7.006;2023-03-03T03:20:41;3.00;99.90
14908;DHT22;7545;52.092;7.006;2023-03-03T03:23:08;3.10;99.90
14908;DHT22;7545;52.092;7.006;2023-03-03T03:25:34;3.10;99.90
14908;DHT22;7545;52.092;7.006;2023-03-03T03:28:00;3.10;99.90
14908;DHT22;7545;52.092;7.006;2023-03-03T03:30:26;3.10;99.90
14908;DHT22;7545;52.092;7.006;2023-03-03T03:32:52;3.10;99.90
14908;DHT22;7545;52.092;7.006;2023-03-03T03:35:17;3.10;99.90
14908;DHT22;7545;52.092;7.006;2023-03-03T03:37:43;3.10;99.90
14908;DHT22;7545;52.092;7.006;2023-03-03T03:40:10;3.20;99.90
14908;DHT22;7545;52.092;7.006;2023-03-03T03:42:36;3.20;99.90
14908;DHT22;7545;52.092;7.006;2023-03-03T03:45:03;3.10;99.90
14908;DHT22;7545;52.092;7.006;2023-03-03T03:47:28;3.20;99.90
14908;DHT22;7545;52.092;7.006;2023-03-03T03:49:54;3.20;99.90
14908;DHT22;7545;52.092;7.006;2023-03-03T03:52:20;3.20;99.90
14908;DHT22;7545;52.092;7.006;2023-03-03T03:54:45;3.20;99.90
14908;DHT22;7545;52.092;7.006;2023-03-03T03:57:11;3.20;99.90
14908;DHT22;7545;52.092;7.006;2023-03-03T03:59:36;3.20;99.90
14908;DHT22;7545;52.092;7.006;2023-03-03T04:02:03;3.20;99.90
14908;DHT22;7545;52.092;7.006;2023-03-03T04:04:28;3.20;99.90
14908;DHT22;7545;52.092;7.006;2023-03-03T04:06:54;3.20;99.90
14908;DHT22;7545;52.092;7.006;2023-03-03T04:09:20;3.10;99.90
14908;DHT22;7545;52.092;7.006;2023-03-03T04:11:45;3.20;99.90
14908;DHT22;7545;52.092;7.006;2023-03-03T04:14:11;3.20;99.90
14908;DHT22;7545;52.092;7.006;2023-03-03T04:16:37;3.20;99.90
14908;DHT22;7545;52.092;7.006;2023-03-03T04:19:02;3.20;99.90
14908;DHT22;7545;52.092;7.006;2023-03-03T04:21:28;3.10;99.90
14908;DHT22;7545;52.092;7.006;2023-03-03T04:23:54;3.20;99.90
14908;DHT22;7545;52.092;7.006;2023-03-03T04:26:19;3.20;99.90
14908;DHT22;7545;52.092;7.006;2023-03-03T04:28:45;3.20;99.90
14908;DHT22;7545;52.092;7.006;2023-03-03T04:31:10;3.20;99.90
14908;DHT22;7545;52.092;7.006;2023-03-03T04:33:36;3.20;99.90
14908;DHT22;7545;52.092;7.006;2023-03-03T04:36:03;3.20;99.90
14908;DHT22;7545;52.092;7.006;2023-03-03T04:38:28;3.20;99.90
14908;DHT22;7545;52.092;7.006;2023-03-03T04:40:55;3.20;99.90
14908;DHT22;7545;52.092;7.006;2023-03-03T04:43:21;3.20;99.90
14908;DHT22;7545;52.092;7.006;2023-03-03T04:45:46;3.20;99.90
14908;DHT22;7545;52.092;7.006;2023-03-03T04:48:12;3.20;99.90
14908;DHT22;7545;52.092;7.006;2023-03-03T04:50:38;3.20;99.90
14908;DHT22;7545;52.092;7.006;2023-03-03T04:53:03;3.20;99.90
14908;DHT22;7545;52.092;7.006;2023-03-03T04:55:29;3.20;99.90
14908;DHT22;7545;52.092;7.006;2023-03-03T04:57:54;3.20;99.90
14908;DHT22;7545;52.092;7.006;2023-03-03T05:00:20;3.20;99.90
14908;DHT22;7545;52.092;7.006;2023-03-03T05:02:47;3.20;99.90
14908;DHT22;7545;52.092;7.006;2023-03-03T05:05:13;3.20;99.90
14908;DHT22;7545;52.092;7.006;2023-03-03T05:07:39;3.20;99.90
14908;DHT22;7545;52.092;7.006;2023-03-03T05:10:06;3.20;99.90
14908;DHT22;7545;52.092;7.006;2023-03-03T05:12:32;3.20;99.90
14908;DHT22;7545;52.092;7.006;2023-03-03T05:14:58;3.20;99.90
14908;DHT22;7545;52.092;7.006;2023-03-03T05:17:23;3.20;99.90
14908;DHT22;7545;52.092;7.006;2023-03-03T05:19:49;3.10;99.90
14908;DHT22;7545;52.092;7.006;2023-03-03T05:22:15;3.20;99.90
14908;DHT22;7545;52.092;7.006;2023-03-03T05:24:40;3.20;99.90
14908;DHT22;7545;52.092;7.006;2023-03-03T05:27:07;3.20;99.90
14908;DHT22;7545;52.092;7.006;2023-03-03T05:29:33;3.20;99.90
14908;DHT22;7545;52.092;7.006;2023-03-03T05:31:59;3.20;99.90
14908;DHT22;7545;52.092;7.006;2023-03-03T05:34:25;3.20;99.90
14908;DHT22;7545;52.092;7.006;2023-03-03T05:36:51;3.20;99.90
14908;DHT22;7545;52.092;7.006;2023-03-03T05:39:16;3.10;99.90
14908;DHT22;7545;52.092;7.006;2023-03-03T05:41:42;3.10;99.90
14908;DHT22;7545;52.092;7.006;2023-03-03T05:44:08;3.10;99.90
14908;DHT22;7545;52.092;7.006;2023-03-03T05:46:34;3.10;99.90
14908;DHT22;7545;52.092;7.006;2023-03-03T05:49:00;3.10;99.90
14908;DHT22;7545;52.092;7.006;2023-03-03T05:51:25;3.00;99.90
14908;DHT22;7545;52.092;7.006;2023-03-03T05:53:51;3.00;99.90
14908;DHT22;7545;52.092;7.006;2023-03-03T05:56:17;3.00;99.90
14908;DHT22;7545;52.092;7.006;2023-03-03T05:58:42;3.00;99.90
14908;DHT22;7545;52.092;7.006;2023-03-03T06:01:08;3.00;99.90
14908;DHT22;7545;52.092;7.006;2023-03-03T06:03:33;3.00;99.90
14908;DHT22;7545;52.092;7.006;2023-03-03T06:05:59;3.00;99.90
14908;DHT22;7545;52.092;7.006;2023-03-03T06:08:25;3.00;99.90
14908;DHT22;7545;52.092;7.006;2023-03-03T06:10:50;3.00;99.90
14908;DHT22;7545;52.092;7.006;2023-03-03T06:13:16;3.00;99.90
14908;DHT22;7545;52.092;7.006;2023-03-03T06:15:42;3.00;99.90
14908;DHT22;7545;52.092;7.006;2023-03-03T06:18:08;3.00;99.90
14908;DHT22;7545;52.092;7.006;2023-03-03T06:20:34;3.10;99.90
14908;DHT22;7545;52.092;7.006;2023-03-03T06:23:00;3.10;99.90
14908;DHT22;7545;52.092;7.006;2023-03-03T06:25:26;3.10;99.90
14908;DHT22;7545;52.092;7.006;2023-03-03T06:27:52;3.10;99.90
14908;DHT22;7545;52.092;7.006;2023-03-03T06:30:18;3.10;99.90
14908;DHT22;7545;52.092;7.006;2023-03-03T06:32:43;3.10;99.90
14908;DHT22;7545;52.092;7.006;2023-03-03T06:35:09;3.10;99.90
14908;DHT22;7545;52.092;7.006;2023-03-03T06:37:35;3.10;99.90
14908;DHT22;7545;52.092;7.006;2023-03-03T06:40:01;3.10;99.90
14908;DHT22;7545;52.092;7.006;2023-03-03T06:42:26;3.10;99.90
14908;DHT22;7545;52.092;7.006;2023-03-03T06:44:52;3.20;99.90
14908;DHT22;7545;52.092;7.006;2023-03-03T06:47:17;3.20;99.90
14908;DHT22;7545;52.092;7.006;2023-03-03T06:49:54;3.20;99.90
14908;DHT22;7545;52.092;7.006;2023-03-03T06:52:23;3.20;99.90
14908;DHT22;7545;52.092;7.006;2023-03-03T06:54:53;3.20;99.90
14908;DHT22;7545;52.092;7.006;2023-03-03T06:57:28;3.20;99.90
14908;DHT22;7545;52.092;7.006;2023-03-03T06:59:57;3.20;99.90
14908;DHT22;7545;52.092;7.006;2023-03-03T07:02:24;3.20;99.90
14908;DHT22;7545;52.092;7.006;2023-03-03T07:04:49;3.20;99.90
14908;DHT22;7545;52.092;7.006;2023-03-03T07:09:43;3.20;99.90
14908;DHT22;7545;52.092;7.006;2023-03-03T07:12:15;3.20;99.90
14908;DHT22;7545;52.092;7.006;2023-03-03T07:14:44;3.20;99.90
14908;DHT22;7545;52.092;7.006;2023-03-03T07:17:14;3.20;99.90
14908;DHT22;7545;52.092;7.006;2023-03-03T07:19:41;3.20;99.90
14908;DHT22;7545;52.092;7.006;2023-03-03T07:22:14;3.30;99.90
14908;DHT22;7545;52.092;7.006;2023-03-03T07:24:41;3.20;99.90
14908;DHT22;7545;52.092;7.006;2023-03-03T07:27:23;3.20;99.90
14908;DHT22;7545;52.092;7.006;2023-03-03T07:29:51;3.20;99.90
14908;DHT22;7545;52.092;7.006;2023-03-03T07:32:38;3.20;99.90
14908;DHT22;7545;52.092;7.006;2023-03-03T07:37:53;3.30;99.90
14908;DHT22;7545;52.092;7.006;2023-03-03T07:42:58;3.30;99.90
14908;DHT22;7545;52.092;7.006;2023-03-03T07:45:29;3.30;99.90
14908;DHT22;7545;52.092;7.006;2023-03-03T07:50:43;3.40;99.90
14908;DHT22;7545;52.092;7.006;2023-03-03T07:53:26;3.40;99.90
14908;DHT22;7545;52.092;7.006;2023-03-03T07:55:52;3.40;99.90
14908;DHT22;7545;52.092;7.006;2023-03-03T07:58:39;3.50;99.90
14908;DHT22;7545;52.092;7.006;2023-03-03T08:03:49;3.50;99.90
14908;DHT22;7545;52.092;7.006;2023-03-03T08:11:34;3.50;99.90
14908;DHT22;7545;52.092;7.006;2023-03-03T08:14:01;3.40;99.90
14908;DHT22;7545;52.092;7.006;2023-03-03T08:16:38;3.40;99.90
14908;DHT22;7545;52.092;7.006;2023-03-03T08:19:05;3.40;99.90
14908;DHT22;7545;52.092;7.006;2023-03-03T08:21:32;3.50;99.90
14908;DHT22;7545;52.092;7.006;2023-03-03T08:23:59;3.50;99.90
14908;DHT22;7545;52.092;7.006;2023-03-03T08:26:25;3.50;99.90
14908;DHT22;7545;52.092;7.006;2023-03-03T08:28:52;3.50;99.90
14908;DHT22;7545;52.092;7.006;2023-03-03T08:31:18;3.50;99.90
14908;DHT22;7545;52.092;7.006;2023-03-03T08:33:45;3.50;99.90
14908;DHT22;7545;52.092;7.006;2023-03-03T08:36:11;3.50;99.90
14908;DHT22;7545;52.092;7.006;2023-03-03T08:38:37;3.50;99.90
14908;DHT22;7545;52.092;7.006;2023-03-03T08:41:04;3.60;99.90
14908;DHT22;7545;52.092;7.006;2023-03-03T08:43:30;3.60;99.90
14908;DHT22;7545;52.092;7.006;2023-03-03T08:46:00;3.60;99.90
14908;DHT22;7545;52.092;7.006;2023-03-03T08:48:27;3.70;99.90
14908;DHT22;7545;52.092;7.006;2023-03-03T08:50:53;3.70;99.90
14908;DHT22;7545;52.092;7.006;2023-03-03T08:53:20;3.70;99.90
14908;DHT22;7545;52.092;7.006;2023-03-03T08:55:45;3.70;99.90
14908;DHT22;7545;52.092;7.006;2023-03-03T08:58:12;3.70;99.90
14908;DHT22;7545;52.092;7.006;2023-03-03T09:00:39;3.80;99.90
14908;DHT22;7545;52.092;7.006;2023-03-03T09:03:05;3.70;99.90
14908;DHT22;7545;52.092;7.006;2023-03-03T09:05:32;3.80;99.90
14908;DHT22;7545;52.092;7.006;2023-03-03T09:07:59;3.80;99.90
14908;DHT22;7545;52.092;7.006;2023-03-03T09:10:26;3.80;99.90
14908;DHT22;7545;52.092;7.006;2023-03-03T09:12:56;3.80;99.90
14908;DHT22;7545;52.092;7.006;2023-03-03T09:15:24;3.90;99.90
14908;DHT22;7545;52.092;7.006;2023-03-03T09:17:51;3.90;99.90
14908;DHT22;7545;52.092;7.006;2023-03-03T09:22:44;3.90;99.90
14908;DHT22;7545;52.092;7.006;2023-03-03T09:25:33;4.00;99.90
14908;DHT22;7545;52.092;7.006;2023-03-03T09:28:02;4.00;99.90
14908;DHT22;7545;52.092;7.006;2023-03-03T09:32:59;4.00;99.90
14908;DHT22;7545;52.092;7.006;2023-03-03T09:35:38;4.10;99.90
14908;DHT22;7545;52.092;7.006;2023-03-03T09:57:16;4.50;99.90
14908;DHT22;7545;52.092;7.006;2023-03-03T10:05:48;4.50;99.90
14908;DHT22;7545;52.092;7.006;2023-03-03T10:09:31;4.50;99.90
14908;DHT22;7545;52.092;7.006;2023-03-03T10:31:09;4.70;99.90
14908;DHT22;7545;52.092;7.006;2023-03-03T10:33:52;4.70;99.90
14908;DHT22;7545;52.092;7.006;2023-03-03T10:36:47;4.70;99.90
14908;DHT22;7545;52.092;7.006;2023-03-03T10:39:26;4.80;99.90
14908;DHT22;7545;52.092;7.006;2023-03-03T10:53:13;4.70;99.90
14908;DHT22;7545;52.092;7.006;2023-03-03T11:10:29;4.90;99.90
14908;DHT22;7545;52.092;7.006;2023-03-03T11:13:01;4.90;99.90
14908;DHT22;7545;52.092;7.006;2023-03-03T11:15:51;5.00;99.90
14908;DHT22;7545;52.092;7.006;2023-03-03T11:18:36;5.00;99.90
14908;DHT22;7545;52.092;7.006;2023-03-03T11:21:08;5.00;99.90
14908;DHT22;7545;52.092;7.006;2023-03-03T11:23:54;5.00;99.90
14908;DHT22;7545;52.092;7.006;2023-03-03T11:31:55;5.10;99.90
14908;DHT22;7545;52.092;7.006;2023-03-03T11:36:55;5.20;99.90
14908;DHT22;7545;52.092;7.006;2023-03-03T11:39:25;5.30;99.90
14908;DHT22;7545;52.092;7.006;2023-03-03T11:55:35;5.80;99.90
14908;DHT22;7545;52.092;7.006;2023-03-03T12:01:12;5.90;99.90
14908;DHT22;7545;52.092;7.006;2023-03-03T12:03:53;6.10;99.90
14908;DHT22;7545;52.092;7.006;2023-03-03T12:12:32;6.30;99.90
14908;DHT22;7545;52.092;7.006;2023-03-03T17:02:19;7.20;99.90
14908;DHT22;7545;52.092;7.006;2023-03-03T17:05:20;7.20;99.90
14908;DHT22;7545;52.092;7.006;2023-03-03T17:16:11;7.20;99.90
14908;DHT22;7545;52.092;7.006;2023-03-03T17:18:51;7.20;99.90
14908;DHT22;7545;52.092;7.006;2023-03-03T17:21:44;7.20;99.90
14908;DHT22;7545;52.092;7.006;2023-03-03T17:30:00;7.10;99.90
14908;DHT22;7545;52.092;7.006;2023-03-03T17:32:57;7.10;99.90
14908;DHT22;7545;52.092;7.006;2023-03-03T17:38:18;7.10;99.90
14908;DHT22;7545;52.092;7.006;2023-03-03T17:51:58;7.20;99.90
14908;DHT22;7545;52.092;7.006;2023-03-03T18:08:24;7.10;99.90
14908;DHT22;7545;52.092;7.006;2023-03-03T18:22:13;7.00;99.90
14908;DHT22;7545;52.092;7.006;2023-03-03T18:33:08;6.90;99.90
14908;DHT22;7545;52.092;7.006;2023-03-03T18:35:35;6.90;99.90
14908;DHT22;7545;52.092;7.006;2023-03-03T18:41:10;6.90;99.90
14908;DHT22;7545;52.092;7.006;2023-03-03T18:46:05;6.90;99.90
14908;DHT22;7545;52.092;7.006;2023-03-03T18:48:49;6.90;99.90
14908;DHT22;7545;52.092;7.006;2023-03-03T19:04:54;6.80;99.90
14908;DHT22;7545;52.092;7.006;2023-03-03T19:12:58;6.80;99.90
14908;DHT22;7545;52.092;7.006;2023-03-03T19:32:19;6.70;99.90
14908;DHT22;7545;52.092;7.006;2023-03-03T19:51:41;6.60;99.90
14908;DHT22;7545;52.092;7.006;2023-03-03T19:56:52;6.60;99.90
14908;DHT22;7545;52.092;7.006;2023-03-03T19:59:49;6.60;99.90
14908;DHT22;7545;52.092;7.006;2023-03-03T20:02:25;6.60;99.90
14908;DHT22;7545;52.092;7.006;2023-03-03T20:05:15;6.60;99.90
14908;DHT22;7545;52.092;7.006;2023-03-03T20:08:03;6.50;99.90
14908;DHT22;7545;52.092;7.006;2023-03-03T20:13:56;6.50;99.90
14908;DHT22;7545;52.092;7.006;2023-03-03T20:16:41;6.50;99.90
14908;DHT22;7545;52.092;7.006;2023-03-03T20:19:31;6.50;99.90
14908;DHT22;7545;52.092;7.006;2023-03-03T20:27:46;6.40;99.90
14908;DHT22;7545;52.092;7.006;2023-03-03T20:33:36;6.40;99.90
14908;DHT22;7545;52.092;7.006;2023-03-03T20:38:41;6.40;99.90
14908;DHT22;7545;52.092;7.006;2023-03-03T20:41:22;6.40;99.90
14908;DHT22;7545;52.092;7.006;2023-03-03T20:46:54;6.40;99.90
14908;DHT22;7545;52.092;7.006;2023-03-03T20:49:48;6.40;99.90
14908;DHT22;7545;52.092;7.006;2023-03-03T21:00:14;6.30;99.90
14908;DHT22;7545;52.092;7.006;2023-03-03T21:05:33;6.40;99.90
14908;DHT22;7545;52.092;7.006;2023-03-03T21:08:03;6.40;99.90
14908;DHT22;7545;52.092;7.006;2023-03-03T21:10:34;6.40;99.90
14908;DHT22;7545;52.092;7.006;2023-03-03T21:13:42;6.40;99.90
14908;DHT22;7545;52.092;7.006;2023-03-03T21:16:28;6.40;99.90
14908;DHT22;7545;52.092;7.006;2023-03-03T21:21:35;6.40;99.90
14908;DHT22;7545;52.092;7.006;2023-03-03T21:24:01;6.40;99.90
14908;DHT22;7545;52.092;7.006;2023-03-03T21:26:53;6.40;99.90
14908;DHT22;7545;52.092;7.006;2023-03-03T21:29:25;6.40;99.90
14908;DHT22;7545;52.092;7.006;2023-03-03T21:36:50;6.50;99.90
14908;DHT22;7545;52.092;7.006;2023-03-03T21:44:29;6.40;99.90
14908;DHT22;7545;52.092;7.006;2023-03-03T21:46:55;6.40;99.90
14908;DHT22;7545;52.092;7.006;2023-03-03T21:49:20;6.40;99.90
14908;DHT22;7545;52.092;7.006;2023-03-03T21:51:46;6.40;99.90
14908;DHT22;7545;52.092;7.006;2023-03-03T21:54:11;6.40;99.90
14908;DHT22;7545;52.092;7.006;2023-03-03T21:56:37;6.40;99.90
14908;DHT22;7545;52.092;7.006;2023-03-03T21:59:06;6.40;99.90
14908;DHT22;7545;52.092;7.006;2023-03-03T22:01:32;6.40;99.90
14908;DHT22;7545;52.092;7.006;2023-03-03T22:03:58;6.40;99.90
14908;DHT22;7545;52.092;7.006;2023-03-03T22:06:24;6.40;99.90
14908;DHT22;7545;52.092;7.006;2023-03-03T22:08:50;6.30;99.90
14908;DHT22;7545;52.092;7.006;2023-03-03T22:11:15;6.40;99.90
14908;DHT22;7545;52.092;7.006;2023-03-03T22:13:41;6.40;99.90
14908;DHT22;7545;52.092;7.006;2023-03-03T22:16:07;6.40;99.90
14908;DHT22;7545;52.092;7.006;2023-03-03T22:18:32;6.40;99.90
14908;DHT22;7545;52.092;7.006;2023-03-03T22:20:58;6.40;99.90
14908;DHT22;7545;52.092;7.006;2023-03-03T22:23:24;6.40;99.90
14908;DHT22;7545;52.092;7.006;2023-03-03T22:25:50;6.40;99.90
14908;DHT22;7545;52.092;7.006;2023-03-03T22:28:15;6.40;99.90
14908;DHT22;7545;52.092;7.006;2023-03-03T22:30:41;6.30;99.90
14908;DHT22;7545;52.092;7.006;2023-03-03T22:33:07;6.30;99.90
14908;DHT22;7545;52.092;7.006;2023-03-03T22:35:32;6.30;99.90
14908;DHT22;7545;52.092;7.006;2023-03-03T22:37:58;6.30;99.90
14908;DHT22;7545;52.092;7.006;2023-03-03T22:40:24;6.30;99.90
14908;DHT22;7545;52.092;7.006;2023-03-03T22:42:50;6.30;99.90
14908;DHT22;7545;52.092;7.006;2023-03-03T22:45:16;6.30;99.90
14908;DHT22;7545;52.092;7.006;2023-03-03T22:47:41;6.30;99.90
14908;DHT22;7545;52.092;7.006;2023-03-03T22:50:08;6.30;99.90
14908;DHT22;7545;52.092;7.006;2023-03-03T22:52:33;6.30;99.90
14908;DHT22;7545;52.092;7.006;2023-03-03T22:54:59;6.30;99.90
14908;DHT22;7545;52.092;7.006;2023-03-03T22:57:25;6.30;99.90
14908;DHT22;7545;52.092;7.006;2023-03-03T22:59:50;6.30;99.90
14908;DHT22;7545;52.092;7.006;2023-03-03T23:02:16;6.30;99.90
14908;DHT22;7545;52.092;7.006;2023-03-03T23:04:42;6.30;99.90
14908;DHT22;7545;52.092;7.006;2023-03-03T23:07:07;6.30;99.90
14908;DHT22;7545;52.092;7.006;2023-03-03T23:09:33;6.30;99.90
14908;DHT22;7545;52.092;7.006;2023-03-03T23:11:59;6.30;99.90
14908;DHT22;7545;52.092;7.006;2023-03-03T23:14:24;6.30;99.90
14908;DHT22;7545;52.092;7.006;2023-03-03T23:16:50;6.30;99.90
14908;DHT22;7545;52.092;7.006;2023-03-03T23:19:16;6.30;99.90
14908;DHT22;7545;52.092;7.006;2023-03-03T23:21:41;6.30;99.90
14908;DHT22;7545;52.092;7.006;2023-03-03T23:24:07;6.30;99.90
14908;DHT22;7545;52.092;7.006;2023-03-03T23:26:36;6.30;99.90
14908;DHT22;7545;52.092;7.006;2023-03-03T23:29:02;6.30;99.90
14908;DHT22;7545;52.092;7.006;2023-03-03T23:31:27;6.30;99.90
14908;DHT22;7545;52.092;7.006;2023-03-03T23:33:53;6.30;99.90
14908;DHT22;7545;52.092;7.006;2023-03-03T23:36:19;6.30;99.90
14908;DHT22;7545;52.092;7.006;2023-03-03T23:38:44;6.30;99.90
14908;DHT22;7545;52.092;7.006;2023-03-03T23:41:10;6.30;99.90
14908;DHT22;7545;52.092;7.006;2023-03-03T23:43:35;6.30;99.90
14908;DHT22;7545;52.092;7.006;2023-03-03T23:46:01;6.20;99.90
14908;DHT22;7545;52.092;7.006;2023-03-03T23:48:27;6.20;99.90
14908;DHT22;7545;52.092;7.006;2023-03-03T23:50:52;6.20;99.90
14908;DHT22;7545;52.092;7.006;2023-03-03T23:53:18;6.30;99.90
14908;DHT22;7545;52.092;7.006;2023-03-03T23:55:43;6.20;99.90
14908;DHT22;7545;52.092;7.006;2023-03-03T23:58:10;6.30;99.90
